Aviation Digital Data Service (ADDS)

Output produced by METARs form (0422 UTC 19 August 2019)
found at http://www.aviationweather.gov/metar/data/
 
METAR text: VCBI 190310Z 16004KT 120V230 9000 SCT018 FEW020CB 26/24 Q1011 NOSIG RMK S/SW
Conditions at: VCBI (COLOMBO/KATUNAYA, LK) observed 0310 UTC 19 August 2019
Temperature: 26.0°C (79°F)
Dewpoint: 24.0°C (75°F) [RH = 89%]
Pressure (altimeter): 29.85 inches Hg (1011.0 mb)
Winds: from the SSE (160 degrees) at 5 MPH (4 knots; 2.1 m/s)
Visibility: 6 miles ( 9 km)
Ceiling: at least 12,000 feet AGL
Clouds: scattered clouds at 1800 feet AGL
few clouds at 2000 feet AGL
Weather: no significant weather observed at this time

METAR text: VCBI 190210Z 19004KT 160V240 8000 TSRA FEW014 SCT018 FEW020CB 25/25 Q1011 NOSIG RMK SE/S/SW/W
Conditions at: VCBI (COLOMBO/KATUNAYA, LK) observed 0210 UTC 19 August 2019
Temperature: 25.0°C (77°F)
Dewpoint: 25.0°C (77°F) [RH = 100%]
Pressure (altimeter): 29.85 inches Hg (1011.0 mb)
Winds: from the S (190 degrees) at 5 MPH (4 knots; 2.1 m/s)
Visibility: 5 miles ( 8 km)
Ceiling: at least 12,000 feet AGL
Clouds: few clouds at 1400 feet AGL
scattered clouds at 1800 feet AGL
few clouds at 2000 feet AGL
Weather: TSRA  (rain associated with thunderstorm(s))

METAR text: VCBI 190010Z VRB03KT 4000 SHRA FEW014 BKN017 24/23 Q1010 BECMG 5000
Conditions at: VCBI (COLOMBO/KATUNAYA, LK) observed 0010 UTC 19 August 2019
Temperature: 24.0°C (75°F)
Dewpoint: 23.0°C (73°F) [RH = 94%]
Pressure (altimeter): 29.82 inches Hg (1010.0 mb)
Winds: variable direction winds at 3 MPH (3 knots; 1.5 m/s)
Visibility: 2.49 miles (4.01 km)
Ceiling: 1700 feet AGL
Clouds: few clouds at 1400 feet AGL
broken clouds at 1700 feet AGL
Weather: SHRA  (rain showers)

METAR text: VCBI 182310Z 16003KT 120V190 9999 BKN017 26/25 Q1010 RESHRA NOSIG
Conditions at: VCBI (COLOMBO/KATUNAYA, LK) observed 2310 UTC 18 August 2019
Temperature: 26.0°C (79°F)
Dewpoint: 25.0°C (77°F) [RH = 94%]
Pressure (altimeter): 29.82 inches Hg (1010.0 mb)
Winds: from the SSE (160 degrees) at 3 MPH (3 knots; 1.5 m/s)
Visibility: 6 or more miles (10+ km)
Ceiling: 1700 feet AGL
Clouds: broken clouds at 1700 feet AGL
Weather: no significant weather observed at this time

METAR text: VCBI 182210Z 16006KT 130V200 9999 BKN018 26/24 Q1010 NOSIG
Conditions at: VCBI (COLOMBO/KATUNAYA, LK) observed 2210 UTC 18 August 2019
Temperature: 26.0°C (79°F)
Dewpoint: 24.0°C (75°F) [RH = 89%]
Pressure (altimeter): 29.82 inches Hg (1010.0 mb)
Winds: from the SSE (160 degrees) at 7 MPH (6 knots; 3.1 m/s)
Visibility: 6 or more miles (10+ km)
Ceiling: 1800 feet AGL
Clouds: broken clouds at 1800 feet AGL
Weather: no significant weather observed at this time

METAR text: VCBI 182110Z 16004KT 130V210 9999 BKN018 26/25 Q1010 NOSIG
Conditions at: VCBI (COLOMBO/KATUNAYA, LK) observed 2110 UTC 18 August 2019
Temperature: 26.0°C (79°F)
Dewpoint: 25.0°C (77°F) [RH = 94%]
Pressure (altimeter): 29.82 inches Hg (1010.0 mb)
Winds: from the SSE (160 degrees) at 5 MPH (4 knots; 2.1 m/s)
Visibility: 6 or more miles (10+ km)
Ceiling: 1800 feet AGL
Clouds: broken clouds at 1800 feet AGL
Weather: no significant weather observed at this time

METAR text: VCBI 182010Z 17005KT 150V220 9999 BKN018 26/25 Q1010 NOSIG
Conditions at: VCBI (COLOMBO/KATUNAYA, LK) observed 2010 UTC 18 August 2019
Temperature: 26.0°C (79°F)
Dewpoint: 25.0°C (77°F) [RH = 94%]
Pressure (altimeter): 29.82 inches Hg (1010.0 mb)
Winds: from the S (170 degrees) at 6 MPH (5 knots; 2.6 m/s)
Visibility: 6 or more miles (10+ km)
Ceiling: 1800 feet AGL
Clouds: broken clouds at 1800 feet AGL
Weather: no significant weather observed at this time

METAR text: VCBI 181910Z 15006KT 9999 BKN018 28/25 Q1011 NOSIG
Conditions at: VCBI (COLOMBO/KATUNAYA, LK) observed 1910 UTC 18 August 2019
Temperature: 28.0°C (82°F)
Dewpoint: 25.0°C (77°F) [RH = 84%]
Pressure (altimeter): 29.85 inches Hg (1011.0 mb)
Winds: from the SSE (150 degrees) at 7 MPH (6 knots; 3.1 m/s)
Visibility: 6 or more miles (10+ km)
Ceiling: 1800 feet AGL
Clouds: broken clouds at 1800 feet AGL
Weather: no significant weather observed at this time

METAR text: VCBI 181810Z 20007KT 9999 BKN018 28/25 Q1012 NOSIG
Conditions at: VCBI (COLOMBO/KATUNAYA, LK) observed 1810 UTC 18 August 2019
Temperature: 28.0°C (82°F)
Dewpoint: 25.0°C (77°F) [RH = 84%]
Pressure (altimeter): 29.88 inches Hg (1012.0 mb)
Winds: from the SSW (200 degrees) at 8 MPH (7 knots; 3.6 m/s)
Visibility: 6 or more miles (10+ km)
Ceiling: 1800 feet AGL
Clouds: broken clouds at 1800 feet AGL
Weather: no significant weather observed at this time

METAR text: VCBI 181710Z 20008KT 9999 FEW018 28/25 Q1012 NOSIG
Conditions at: VCBI (COLOMBO/KATUNAYA, LK) observed 1710 UTC 18 August 2019
Temperature: 28.0°C (82°F)
Dewpoint: 25.0°C (77°F) [RH = 84%]
Pressure (altimeter): 29.88 inches Hg (1012.0 mb)
Winds: from the SSW (200 degrees) at 9 MPH (8 knots; 4.1 m/s)
Visibility: 6 or more miles (10+ km)
Ceiling: at least 12,000 feet AGL
Clouds: few clouds at 1800 feet AGL
Weather: no significant weather observed at this time

METAR text: VCBI 181610Z 21010KT 9999 FEW018 28/25 Q1012 NOSIG
Conditions at: VCBI (COLOMBO/KATUNAYA, LK) observed 1610 UTC 18 August 2019
Temperature: 28.0°C (82°F)
Dewpoint: 25.0°C (77°F) [RH = 84%]
Pressure (altimeter): 29.88 inches Hg (1012.0 mb)
Winds: from the SSW (210 degrees) at 12 MPH (10 knots; 5.1 m/s)
Visibility: 6 or more miles (10+ km)
Ceiling: at least 12,000 feet AGL
Clouds: few clouds at 1800 feet AGL
Weather: no significant weather observed at this time

METAR text: VCBI 181510Z 22012KT 9999 SCT018 28/25 Q1011 NOSIG
Conditions at: VCBI (COLOMBO/KATUNAYA, LK) observed 1510 UTC 18 August 2019
Temperature: 28.0°C (82°F)
Dewpoint: 25.0°C (77°F) [RH = 84%]
Pressure (altimeter): 29.85 inches Hg (1011.0 mb)
Winds: from the SW (220 degrees) at 14 MPH (12 knots; 6.2 m/s)
Visibility: 6 or more miles (10+ km)
Ceiling: at least 12,000 feet AGL
Clouds: scattered clouds at 1800 feet AGL
Weather: no significant weather observed at this time

METAR text: VCBI 181410Z 22011KT 9999 SCT018 28/25 Q1010 NOSIG
Conditions at: VCBI (COLOMBO/KATUNAYA, LK) observed 1410 UTC 18 August 2019
Temperature: 28.0°C (82°F)
Dewpoint: 25.0°C (77°F) [RH = 84%]
Pressure (altimeter): 29.82 inches Hg (1010.0 mb)
Winds: from the SW (220 degrees) at 13 MPH (11 knots; 5.7 m/s)
Visibility: 6 or more miles (10+ km)
Ceiling: at least 12,000 feet AGL
Clouds: scattered clouds at 1800 feet AGL
Weather: no significant weather observed at this time

METAR text: VCBI 181310Z 22011KT 9999 SCT018 28/25 Q1009 NOSIG
Conditions at: VCBI (COLOMBO/KATUNAYA, LK) observed 1310 UTC 18 August 2019
Temperature: 28.0°C (82°F)
Dewpoint: 25.0°C (77°F) [RH = 84%]
Pressure (altimeter): 29.79 inches Hg (1009.0 mb)
Winds: from the SW (220 degrees) at 13 MPH (11 knots; 5.7 m/s)
Visibility: 6 or more miles (10+ km)
Ceiling: at least 12,000 feet AGL
Clouds: scattered clouds at 1800 feet AGL
Weather: no significant weather observed at this time

METAR text: VCBI 181210Z 23012KT 9999 BKN018 29/25 Q1008 NOSIG
Conditions at: VCBI (COLOMBO/KATUNAYA, LK) observed 1210 UTC 18 August 2019
Temperature: 29.0°C (84°F)
Dewpoint: 25.0°C (77°F) [RH = 79%]
Pressure (altimeter): 29.76 inches Hg (1008.0 mb)
Winds: from the SW (230 degrees) at 14 MPH (12 knots; 6.2 m/s)
Visibility: 6 or more miles (10+ km)
Ceiling: 1800 feet AGL
Clouds: broken clouds at 1800 feet AGL
Weather: no significant weather observed at this time

METAR text: VCBI 181110Z 23009KT 9999 SCT017 FEW020CB 29/25 Q1008 NOSIG RMK SE/S
Conditions at: VCBI (COLOMBO/KATUNAYA, LK) observed 1110 UTC 18 August 2019
Temperature: 29.0°C (84°F)
Dewpoint: 25.0°C (77°F) [RH = 79%]
Pressure (altimeter): 29.76 inches Hg (1008.0 mb)
Winds: from the SW (230 degrees) at 10 MPH (9 knots; 4.6 m/s)
Visibility: 6 or more miles (10+ km)
Ceiling: at least 12,000 feet AGL
Clouds: scattered clouds at 1700 feet AGL
few clouds at 2000 feet AGL
Weather: no significant weather observed at this time

METAR text: VCBI 181010Z 25007KT 220V280 9999 SCT017 FEW020CB 29/25 Q1008 NOSIG RMK N
Conditions at: VCBI (COLOMBO/KATUNAYA, LK) observed 1010 UTC 18 August 2019
Temperature: 29.0°C (84°F)
Dewpoint: 25.0°C (77°F) [RH = 79%]
Pressure (altimeter): 29.76 inches Hg (1008.0 mb)
Winds: from the WSW (250 degrees) at 8 MPH (7 knots; 3.6 m/s)
Visibility: 6 or more miles (10+ km)
Ceiling: at least 12,000 feet AGL
Clouds: scattered clouds at 1700 feet AGL
few clouds at 2000 feet AGL
Weather: no significant weather observed at this time

METAR text: VCBI 180910Z 23009KT 9999 BKN017 30/25 Q1008 NOSIG
Conditions at: VCBI (COLOMBO/KATUNAYA, LK) observed 0910 UTC 18 August 2019
Temperature: 30.0°C (86°F)
Dewpoint: 25.0°C (77°F) [RH = 75%]
Pressure (altimeter): 29.76 inches Hg (1008.0 mb)
Winds: from the SW (230 degrees) at 10 MPH (9 knots; 4.6 m/s)
Visibility: 6 or more miles (10+ km)
Ceiling: 1700 feet AGL
Clouds: broken clouds at 1700 feet AGL
Weather: no significant weather observed at this time

METAR text: VCBI 180810Z 25010KT 220V280 9999 BKN017 30/25 Q1009 NOSIG
Conditions at: VCBI (COLOMBO/KATUNAYA, LK) observed 0810 UTC 18 August 2019
Temperature: 30.0°C (86°F)
Dewpoint: 25.0°C (77°F) [RH = 75%]
Pressure (altimeter): 29.79 inches Hg (1009.0 mb)
Winds: from the WSW (250 degrees) at 12 MPH (10 knots; 5.1 m/s)
Visibility: 6 or more miles (10+ km)
Ceiling: 1700 feet AGL
Clouds: broken clouds at 1700 feet AGL
Weather: no significant weather observed at this time

METAR text: VCBI 180710Z 23010KT 200V270 9999 BKN017 31/25 Q1009 NOSIG
Conditions at: VCBI (COLOMBO/KATUNAYA, LK) observed 0710 UTC 18 August 2019
Temperature: 31.0°C (88°F)
Dewpoint: 25.0°C (77°F) [RH = 71%]
Pressure (altimeter): 29.79 inches Hg (1009.0 mb)
Winds: from the SW (230 degrees) at 12 MPH (10 knots; 5.1 m/s)
Visibility: 6 or more miles (10+ km)
Ceiling: 1700 feet AGL
Clouds: broken clouds at 1700 feet AGL
Weather: no significant weather observed at this time

METAR text: VCBI 180610Z 23011KT 200V270 9999 BKN017 30/26 Q1010 NOSIG
Conditions at: VCBI (COLOMBO/KATUNAYA, LK) observed 0610 UTC 18 August 2019
Temperature: 30.0°C (86°F)
Dewpoint: 26.0°C (79°F) [RH = 79%]
Pressure (altimeter): 29.82 inches Hg (1010.0 mb)
Winds: from the SW (230 degrees) at 13 MPH (11 knots; 5.7 m/s)
Visibility: 6 or more miles (10+ km)
Ceiling: 1700 feet AGL
Clouds: broken clouds at 1700 feet AGL
Weather: no significant weather observed at this time

METAR text: VCBI 180510Z 24010KT 9999 BKN017 30/26 Q1010 NOSIG
Conditions at: VCBI (COLOMBO/KATUNAYA, LK) observed 0510 UTC 18 August 2019
Temperature: 30.0°C (86°F)
Dewpoint: 26.0°C (79°F) [RH = 79%]
Pressure (altimeter): 29.82 inches Hg (1010.0 mb)
Winds: from the WSW (240 degrees) at 12 MPH (10 knots; 5.1 m/s)
Visibility: 6 or more miles (10+ km)
Ceiling: 1700 feet AGL
Clouds: broken clouds at 1700 feet AGL
Weather: no significant weather observed at this time

METAR text: VCBI 180410Z 24008KT 9999 BKN017 29/26 Q1010 NOSIG
Conditions at: VCBI (COLOMBO/KATUNAYA, LK) observed 0410 UTC 18 August 2019
Temperature: 29.0°C (84°F)
Dewpoint: 26.0°C (79°F) [RH = 84%]
Pressure (altimeter): 29.82 inches Hg (1010.0 mb)
Winds: from the WSW (240 degrees) at 9 MPH (8 knots; 4.1 m/s)
Visibility: 6 or more miles (10+ km)
Ceiling: 1700 feet AGL
Clouds: broken clouds at 1700 feet AGL
Weather: no significant weather observed at this time

METAR text: VCBI 180310Z 22010KT 9999 BKN017 29/26 Q1010 NOSIG
Conditions at: VCBI (COLOMBO/KATUNAYA, LK) observed 0310 UTC 18 August 2019
Temperature: 29.0°C (84°F)
Dewpoint: 26.0°C (79°F) [RH = 84%]
Pressure (altimeter): 29.82 inches Hg (1010.0 mb)
Winds: from the SW (220 degrees) at 12 MPH (10 knots; 5.1 m/s)
Visibility: 6 or more miles (10+ km)
Ceiling: 1700 feet AGL
Clouds: broken clouds at 1700 feet AGL
Weather: no significant weather observed at this time

METAR text: VCBI 180210Z 24009KT 9999 FEW014 BKN017 28/25 Q1009 NOSIG
Conditions at: VCBI (COLOMBO/KATUNAYA, LK) observed 0210 UTC 18 August 2019
Temperature: 28.0°C (82°F)
Dewpoint: 25.0°C (77°F) [RH = 84%]
Pressure (altimeter): 29.79 inches Hg (1009.0 mb)
Winds: from the WSW (240 degrees) at 10 MPH (9 knots; 4.6 m/s)
Visibility: 6 or more miles (10+ km)
Ceiling: 1700 feet AGL
Clouds: few clouds at 1400 feet AGL
broken clouds at 1700 feet AGL
Weather: no significant weather observed at this time

METAR text: VCBI 180110Z 21008KT 170V230 9000 FEW013 BKN017 28/25 Q1009 NOSIG
Conditions at: VCBI (COLOMBO/KATUNAYA, LK) observed 0110 UTC 18 August 2019
Temperature: 28.0°C (82°F)
Dewpoint: 25.0°C (77°F) [RH = 84%]
Pressure (altimeter): 29.79 inches Hg (1009.0 mb)
Winds: from the SSW (210 degrees) at 9 MPH (8 knots; 4.1 m/s)
Visibility: 6 miles ( 9 km)
Ceiling: 1700 feet AGL
Clouds: few clouds at 1300 feet AGL
broken clouds at 1700 feet AGL
Weather: no significant weather observed at this time

METAR text: VCBI 180010Z 24012KT 9999 FEW017 28/25 Q1008 NOSIG
Conditions at: VCBI (COLOMBO/KATUNAYA, LK) observed 0010 UTC 18 August 2019
Temperature: 28.0°C (82°F)
Dewpoint: 25.0°C (77°F) [RH = 84%]
Pressure (altimeter): 29.76 inches Hg (1008.0 mb)
Winds: from the WSW (240 degrees) at 14 MPH (12 knots; 6.2 m/s)
Visibility: 6 or more miles (10+ km)
Ceiling: at least 12,000 feet AGL
Clouds: few clouds at 1700 feet AGL
Weather: no significant weather observed at this time

METAR text: VCBI 172310Z 21008KT 9999 SCT016 27/25 Q1008 NOSIG
Conditions at: VCBI (COLOMBO/KATUNAYA, LK) observed 2310 UTC 17 August 2019
Temperature: 27.0°C (81°F)
Dewpoint: 25.0°C (77°F) [RH = 89%]
Pressure (altimeter): 29.76 inches Hg (1008.0 mb)
Winds: from the SSW (210 degrees) at 9 MPH (8 knots; 4.1 m/s)
Visibility: 6 or more miles (10+ km)
Ceiling: at least 12,000 feet AGL
Clouds: scattered clouds at 1600 feet AGL
Weather: no significant weather observed at this time

METAR text: VCBI 172210Z 17007KT 9999 BKN017 27/25 Q1008 NOSIG
Conditions at: VCBI (COLOMBO/KATUNAYA, LK) observed 2210 UTC 17 August 2019
Temperature: 27.0°C (81°F)
Dewpoint: 25.0°C (77°F) [RH = 89%]
Pressure (altimeter): 29.76 inches Hg (1008.0 mb)
Winds: from the S (170 degrees) at 8 MPH (7 knots; 3.6 m/s)
Visibility: 6 or more miles (10+ km)
Ceiling: 1700 feet AGL
Clouds: broken clouds at 1700 feet AGL
Weather: no significant weather observed at this time

METAR text: VCBI 172110Z 17005KT 9999 // SCT017 26/25 Q1008 NOSIG
Conditions at: VCBI (COLOMBO/KATUNAYA, LK) observed 2110 UTC 17 August 2019
Temperature: 26.0°C (79°F)
Dewpoint: 25.0°C (77°F) [RH = 94%]
Pressure (altimeter): 29.76 inches Hg (1008.0 mb)
Winds: from the S (170 degrees) at 6 MPH (5 knots; 2.6 m/s)
Visibility: 6 or more miles (10+ km)
Ceiling: at least 12,000 feet AGL
Clouds: scattered clouds at 1700 feet AGL
Weather: no significant weather observed at this time

METAR text: VCBI 172010Z 17003KT 9999 FEW013 SCT016 26/25 Q1009 NOSIG
Conditions at: VCBI (COLOMBO/KATUNAYA, LK) observed 2010 UTC 17 August 2019
Temperature: 26.0°C (79°F)
Dewpoint: 25.0°C (77°F) [RH = 94%]
Pressure (altimeter): 29.79 inches Hg (1009.0 mb)
Winds: from the S (170 degrees) at 3 MPH (3 knots; 1.5 m/s)
Visibility: 6 or more miles (10+ km)
Ceiling: at least 12,000 feet AGL
Clouds: few clouds at 1300 feet AGL
scattered clouds at 1600 feet AGL
Weather: no significant weather observed at this time

METAR text: VCBI 171910Z 17004KT 9000 FEW013 SCT017 27/25 Q1009 NOSIG
Conditions at: VCBI (COLOMBO/KATUNAYA, LK) observed 1910 UTC 17 August 2019
Temperature: 27.0°C (81°F)
Dewpoint: 25.0°C (77°F) [RH = 89%]
Pressure (altimeter): 29.79 inches Hg (1009.0 mb)
Winds: from the S (170 degrees) at 5 MPH (4 knots; 2.1 m/s)
Visibility: 6 miles ( 9 km)
Ceiling: at least 12,000 feet AGL
Clouds: few clouds at 1300 feet AGL
scattered clouds at 1700 feet AGL
Weather: no significant weather observed at this time

METAR text: VCBI 171810Z 16003KT 9999 SCT017 27/25 Q1010 NOSIG
Conditions at: VCBI (COLOMBO/KATUNAYA, LK) observed 1810 UTC 17 August 2019
Temperature: 27.0°C (81°F)
Dewpoint: 25.0°C (77°F) [RH = 89%]
Pressure (altimeter): 29.82 inches Hg (1010.0 mb)
Winds: from the SSE (160 degrees) at 3 MPH (3 knots; 1.5 m/s)
Visibility: 6 or more miles (10+ km)
Ceiling: at least 12,000 feet AGL
Clouds: scattered clouds at 1700 feet AGL
Weather: no significant weather observed at this time

METAR text: VCBI 171710Z 20007KT 9999 SCT018 27/25 Q1010 NOSIG
Conditions at: VCBI (COLOMBO/KATUNAYA, LK) observed 1710 UTC 17 August 2019
Temperature: 27.0°C (81°F)
Dewpoint: 25.0°C (77°F) [RH = 89%]
Pressure (altimeter): 29.82 inches Hg (1010.0 mb)
Winds: from the SSW (200 degrees) at 8 MPH (7 knots; 3.6 m/s)
Visibility: 6 or more miles (10+ km)
Ceiling: at least 12,000 feet AGL
Clouds: scattered clouds at 1800 feet AGL
Weather: no significant weather observed at this time

Forecast for: VCBI (COLOMBO/KATUNAYA, LK)
Text: TAF VCBI 182300Z 1900/2006 23010KT 9999 SCT016 TX30/1908Z TN27/2000Z
Forecast period: 0000 UTC 19 August 2019 to 0600 UTC 20 August 2019
Forecast type: FROM: standard forecast or significant change
Winds: from the SW (230 degrees) at 12 MPH (10 knots; 5.1 m/s)
Visibility: 6 or more miles 10+ km)
Ceiling: at least 12,000 feet AGL
Clouds: scattered clouds at 1600 feet AGL
Weather: no significant weather forecast for this period
Text: PROB30
Forecast period: 0000 to 0400 UTC 19 August 2019
Forecast type: TEMPORARY: The following changes expected for less than half the time period
Visibility: 1.19 miles (1.92 km)
Ceiling: 1400 feet AGL
Clouds: scattered clouds at 1200 feet AGL
broken clouds at 1400 feet AGL
few clouds at 2000 feet AGL
Weather: -SHRA  (light rain showers)